sensor_id;sensor_type;location;lat;lon;timestamp;pressure;altitude;pressure_sealevel;temperature;humidity
29121;BME280;16191;49.548;8.658;2023-04-19T00:01:02;101105.66;;;10.41;100.00
29121;BME280;16191;49.548;8.658;2023-04-19T00:03:28;101102.19;;;10.41;100.00
29121;BME280;16191;49.548;8.658;2023-04-19T00:05:56;101106.66;;;10.37;100.00
29121;BME280;16191;49.548;8.658;2023-04-19T00:08:25;101094.38;;;10.41;100.00
29121;BME280;16191;49.548;8.658;2023-04-19T00:10:52;101095.47;;;10.32;100.00
29121;BME280;16191;49.548;8.658;2023-04-19T00:13:18;101092.03;;;10.32;100.00
29121;BME280;16191;49.548;8.658;2023-04-19T00:15:46;101096.34;;;10.33;100.00
29121;BME280;16191;49.548;8.658;2023-04-19T00:18:12;101095.41;;;10.35;100.00
29121;BME280;16191;49.548;8.658;2023-04-19T00:20:39;101094.38;;;10.41;100.00
29121;BME280;16191;49.548;8.658;2023-04-19T00:23:05;101084.00;;;10.39;100.00
29121;BME280;16191;49.548;8.658;2023-04-19T00:25:32;101092.06;;;10.30;100.00
29121;BME280;16191;49.548;8.658;2023-04-19T00:28:00;101092.06;;;10.30;100.00
29121;BME280;16191;49.548;8.658;2023-04-19T00:30:26;101089.09;;;10.42;100.00
29121;BME280;16191;49.548;8.658;2023-04-19T00:32:53;101092.81;;;10.35;100.00
29121;BME280;16191;49.548;8.658;2023-04-19T00:35:20;101092.06;;;10.30;100.00
29121;BME280;16191;49.548;8.658;2023-04-19T00:37:46;101093.88;;;10.26;100.00
29121;BME280;16191;49.548;8.658;2023-04-19T00:40:13;101092.06;;;10.30;100.00
29121;BME280;16191;49.548;8.658;2023-04-19T00:42:39;101096.56;;;10.23;100.00
29121;BME280;16191;49.548;8.658;2023-04-19T00:45:06;101089.56;;;10.25;100.00
29121;BME280;16191;49.548;8.658;2023-04-19T00:47:35;101077.22;;;10.32;100.00
29121;BME280;16191;49.548;8.658;2023-04-19T00:50:02;101091.25;;;10.28;100.00
29121;BME280;16191;49.548;8.658;2023-04-19T00:52:31;101087.81;;;10.26;100.00
29121;BME280;16191;49.548;8.658;2023-04-19T00:54:58;101084.34;;;10.25;100.00
29121;BME280;16191;49.548;8.658;2023-04-19T00:57:27;101085.31;;;10.21;100.00
29121;BME280;16191;49.548;8.658;2023-04-19T00:59:56;101085.34;;;10.18;100.00
29121;BME280;16191;49.548;8.658;2023-04-19T01:02:23;101081.84;;;10.21;100.00
29121;BME280;16191;49.548;8.658;2023-04-19T01:04:50;101080.00;;;10.26;100.00
29121;BME280;16191;49.548;8.658;2023-04-19T01:07:18;101066.97;;;10.24;100.00
29121;BME280;16191;49.548;8.658;2023-04-19T01:09:45;101065.06;;;10.31;100.00
29121;BME280;16191;49.548;8.658;2023-04-19T01:12:12;101068.78;;;10.22;100.00
29121;BME280;16191;49.548;8.658;2023-04-19T01:14:41;101066.25;;;10.18;100.00
29121;BME280;16191;49.548;8.658;2023-04-19T01:17:08;101069.84;;;10.14;100.00
29121;BME280;16191;49.548;8.658;2023-04-19T01:19:35;101071.56;;;10.15;100.00
29121;BME280;16191;49.548;8.658;2023-04-19T01:22:02;101062.09;;;10.11;100.00
29121;BME280;16191;49.548;8.658;2023-04-19T01:24:29;101059.53;;;10.09;100.00
29121;BME280;16191;49.548;8.658;2023-04-19T01:26:56;101059.38;;;10.15;100.00
29121;BME280;16191;49.548;8.658;2023-04-19T01:29:23;101057.66;;;10.14;100.00
29121;BME280;16191;49.548;8.658;2023-04-19T01:31:49;101048.84;;;10.20;100.00
29121;BME280;16191;49.548;8.658;2023-04-19T01:34:19;101051.63;;;10.12;100.00
29121;BME280;16191;49.548;8.658;2023-04-19T01:36:46;101047.16;;;10.17;100.00
29121;BME280;16191;49.548;8.658;2023-04-19T01:39:12;101047.19;;;10.16;100.00
29121;BME280;16191;49.548;8.658;2023-04-19T01:41:39;101045.50;;;10.15;100.00
29121;BME280;16191;49.548;8.658;2023-04-19T01:44:08;101041.41;;;10.05;100.00
29121;BME280;16191;49.548;8.658;2023-04-19T01:46:35;101044.72;;;10.11;100.00
29121;BME280;16191;49.548;8.658;2023-04-19T01:49:42;101042.75;;;10.19;100.00
29121;BME280;16191;49.548;8.658;2023-04-19T01:52:28;101031.56;;;10.16;100.00
29121;BME280;16191;49.548;8.658;2023-04-19T01:55:15;101028.47;;;10.00;100.00
29121;BME280;16191;49.548;8.658;2023-04-19T01:58:01;101033.53;;;10.06;100.00
29121;BME280;16191;49.548;8.658;2023-04-19T02:00:48;101030.69;;;10.15;100.00
29121;BME280;16191;49.548;8.658;2023-04-19T02:03:35;101024.75;;;10.10;100.00
29121;BME280;16191;49.548;8.658;2023-04-19T02:06:02;101019.63;;;10.06;100.00
29121;BME280;16191;49.548;8.658;2023-04-19T02:08:28;101020.38;;;10.11;100.00
29121;BME280;16191;49.548;8.658;2023-04-19T02:10:55;101016.91;;;10.10;100.00
29121;BME280;16191;49.548;8.658;2023-04-19T02:13:21;101018.44;;;10.19;100.00
29121;BME280;16191;49.548;8.658;2023-04-19T02:15:48;101011.69;;;10.10;100.00
29121;BME280;16191;49.548;8.658;2023-04-19T02:18:14;101000.53;;;10.05;100.00
29121;BME280;16191;49.548;8.658;2023-04-19T02:20:42;100999.69;;;10.05;100.00
29121;BME280;16191;49.548;8.658;2023-04-19T02:23:09;101006.47;;;10.10;100.00
29121;BME280;16191;49.548;8.658;2023-04-19T02:25:35;100998.53;;;10.15;100.00
29121;BME280;16191;49.548;8.658;2023-04-19T02:28:02;101007.53;;;10.03;100.00
29121;BME280;16191;49.548;8.658;2023-04-19T02:30:29;100999.72;;;10.03;100.00
29121;BME280;16191;49.548;8.658;2023-04-19T02:32:55;100999.59;;;10.08;100.00
29121;BME280;16191;49.548;8.658;2023-04-19T02:35:24;101000.53;;;10.05;100.00
29121;BME280;16191;49.548;8.658;2023-04-19T02:37:50;100989.41;;;9.98;100.00
29121;BME280;16191;49.548;8.658;2023-04-19T02:40:17;100997.22;;;9.98;100.00
29121;BME280;16191;49.548;8.658;2023-04-19T02:42:44;100989.44;;;9.97;100.00
29121;BME280;16191;49.548;8.658;2023-04-19T02:45:10;100997.91;;;10.05;100.00
29121;BME280;16191;49.548;8.658;2023-04-19T02:47:37;100998.06;;;9.99;100.00
29121;BME280;16191;49.548;8.658;2023-04-19T02:50:04;100991.03;;;10.03;100.00
29121;BME280;16191;49.548;8.658;2023-04-19T02:52:34;100994.53;;;10.02;100.00
29121;BME280;16191;49.548;8.658;2023-04-19T02:55:01;100990.88;;;10.09;100.00
29121;BME280;16191;49.548;8.658;2023-04-19T02:57:28;100987.53;;;10.04;100.00
29121;BME280;16191;49.548;8.658;2023-04-19T02:59:54;100989.25;;;10.05;100.00
29121;BME280;16191;49.548;8.658;2023-04-19T03:02:21;100985.78;;;10.04;100.00
29121;BME280;16191;49.548;8.658;2023-04-19T03:04:48;100978.06;;;10.00;100.00
29121;BME280;16191;49.548;8.658;2023-04-19T03:07:15;100978.13;;;9.98;100.00
29121;BME280;16191;49.548;8.658;2023-04-19T03:09:42;100972.81;;;10.01;100.00
29121;BME280;16191;49.548;8.658;2023-04-19T03:12:09;100970.25;;;10.00;100.00
29121;BME280;16191;49.548;8.658;2023-04-19T03:14:36;100972.69;;;10.06;100.00
29121;BME280;16191;49.548;8.658;2023-04-19T03:17:02;100970.16;;;10.03;100.00
29121;BME280;16191;49.548;8.658;2023-04-19T03:19:29;100974.53;;;10.02;100.00
29121;BME280;16191;49.548;8.658;2023-04-19T03:21:56;100971.09;;;10.00;100.00
29121;BME280;16191;49.548;8.658;2023-04-19T03:24:29;100970.06;;;10.07;100.00
29121;BME280;16191;49.548;8.658;2023-04-19T03:26:59;100969.25;;;10.05;100.00
29121;BME280;16191;49.548;8.658;2023-04-19T03:29:28;100968.47;;;10.02;100.00
29121;BME280;16191;49.548;8.658;2023-04-19T03:31:59;100962.38;;;10.01;100.00
29121;BME280;16191;49.548;8.658;2023-04-19T03:34:27;100965.00;;;10.01;100.00
29121;BME280;16191;49.548;8.658;2023-04-19T03:36:53;100958.16;;;9.97;100.00
29121;BME280;16191;49.548;8.658;2023-04-19T03:39:20;100941.75;;;9.93;100.00
29121;BME280;16191;49.548;8.658;2023-04-19T03:41:50;100946.28;;;9.87;100.00
29121;BME280;16191;49.548;8.658;2023-04-19T03:44:35;100939.38;;;9.84;100.00
29121;BME280;16191;49.548;8.658;2023-04-19T03:47:04;100940.25;;;9.85;100.00
29121;BME280;16191;49.548;8.658;2023-04-19T03:49:37;100932.78;;;9.73;100.00
29121;BME280;16191;49.548;8.658;2023-04-19T03:52:04;100931.00;;;9.73;100.00
29121;BME280;16191;49.548;8.658;2023-04-19T03:54:32;100933.78;;;9.67;100.00
29121;BME280;16191;49.548;8.658;2023-04-19T03:57:00;100932.06;;;9.66;100.00
29121;BME280;16191;49.548;8.658;2023-04-19T03:59:27;100921.75;;;9.61;100.00
29121;BME280;16191;49.548;8.658;2023-04-19T04:01:54;100938.44;;;9.54;100.00
29121;BME280;16191;49.548;8.658;2023-04-19T04:04:21;100931.72;;;9.46;100.00
29121;BME280;16191;49.548;8.658;2023-04-19T04:06:48;100936.16;;;9.42;100.00
29121;BME280;16191;49.548;8.658;2023-04-19T04:09:16;100935.41;;;9.37;100.00
29121;BME280;16191;49.548;8.658;2023-04-19T04:11:42;100929.50;;;9.31;100.00
29121;BME280;16191;49.548;8.658;2023-04-19T04:14:09;100935.75;;;9.23;100.00
29121;BME280;16191;49.548;8.658;2023-04-19T04:16:37;100935.78;;;9.22;100.00
29121;BME280;16191;49.548;8.658;2023-04-19T04:19:04;100937.44;;;9.26;100.00
29121;BME280;16191;49.548;8.658;2023-04-19T04:21:34;100933.97;;;9.25;100.00
29121;BME280;16191;49.548;8.658;2023-04-19T04:24:03;100936.66;;;9.22;100.00
29121;BME280;16191;49.548;8.658;2023-04-19T04:26:36;100933.09;;;9.25;100.00
29121;BME280;16191;49.548;8.658;2023-04-19T04:29:31;100940.97;;;9.23;100.00
29121;BME280;16191;49.548;8.658;2023-04-19T04:32:00;100936.81;;;9.15;100.00
29121;BME280;16191;49.548;8.658;2023-04-19T04:34:34;100939.41;;;9.15;100.00
29121;BME280;16191;49.548;8.658;2023-04-19T04:37:06;100930.75;;;9.14;100.00
29121;BME280;16191;49.548;8.658;2023-04-19T04:39:35;100935.88;;;9.17;100.00
29121;BME280;16191;49.548;8.658;2023-04-19T04:42:05;100936.84;;;9.13;100.00
29121;BME280;16191;49.548;8.658;2023-04-19T04:44:35;100932.63;;;9.09;100.00
29121;BME280;16191;49.548;8.658;2023-04-19T04:47:02;100936.88;;;9.12;100.00
29121;BME280;16191;49.548;8.658;2023-04-19T04:49:34;100937.72;;;9.14;100.00
29121;BME280;16191;49.548;8.658;2023-04-19T04:52:01;100935.09;;;9.14;100.00
29121;BME280;16191;49.548;8.658;2023-04-19T04:54:35;100947.19;;;9.16;100.00
29121;BME280;16191;49.548;8.658;2023-04-19T04:57:03;100946.19;;;9.22;100.00
29121;BME280;16191;49.548;8.658;2023-04-19T04:59:29;100949.56;;;9.27;100.00
29121;BME280;16191;49.548;8.658;2023-04-19T05:01:56;100952.13;;;9.28;100.00
29121;BME280;16191;49.548;8.658;2023-04-19T05:04:24;100947.66;;;9.32;100.00
29121;BME280;16191;49.548;8.658;2023-04-19T05:06:50;100947.47;;;9.41;100.00
29121;BME280;16191;49.548;8.658;2023-04-19T05:09:22;100951.00;;;9.39;100.00
29121;BME280;16191;49.548;8.658;2023-04-19T05:11:49;100944.03;;;9.39;100.00
29121;BME280;16191;49.548;8.658;2023-04-19T05:14:16;100951.69;;;9.45;100.00
29121;BME280;16191;49.548;8.658;2023-04-19T05:16:43;100958.47;;;9.52;100.00
29121;BME280;16191;49.548;8.658;2023-04-19T05:19:09;100956.56;;;9.59;100.00
29121;BME280;16191;49.548;8.658;2023-04-19T05:21:42;100954.78;;;9.61;100.00
29121;BME280;16191;49.548;8.658;2023-04-19T05:24:09;100952.16;;;9.61;100.00
29121;BME280;16191;49.548;8.658;2023-04-19T05:26:35;100948.66;;;9.62;100.00
29121;BME280;16191;49.548;8.658;2023-04-19T05:29:04;100964.34;;;9.60;100.00
29121;BME280;16191;49.548;8.658;2023-04-19T05:31:39;100955.47;;;9.68;100.00
29121;BME280;16191;49.548;8.658;2023-04-19T05:34:16;100952.63;;;9.77;100.00
29121;BME280;16191;49.548;8.658;2023-04-19T05:36:46;100952.56;;;9.78;100.00
29121;BME280;16191;49.548;8.658;2023-04-19T05:39:13;100958.50;;;9.85;100.00
29121;BME280;16191;49.548;8.658;2023-04-19T05:41:40;100955.88;;;9.85;100.00
29121;BME280;16191;49.548;8.658;2023-04-19T05:44:07;100956.69;;;9.87;100.00
29121;BME280;16191;49.548;8.658;2023-04-19T05:46:34;100954.78;;;9.93;100.00
29121;BME280;16191;49.548;8.658;2023-04-19T05:49:01;100953.72;;;10.01;100.00
29121;BME280;16191;49.548;8.658;2023-04-19T05:51:40;100949.59;;;9.93;100.00
29121;BME280;16191;49.548;8.658;2023-04-19T05:54:11;100948.47;;;10.02;100.00
29121;BME280;16191;49.548;8.658;2023-04-19T05:56:43;100946.88;;;9.96;100.00
29121;BME280;16191;49.548;8.658;2023-04-19T05:59:09;100954.53;;;10.03;100.00
29121;BME280;16191;49.548;8.658;2023-04-19T06:01:36;100961.22;;;10.13;100.00
29121;BME280;16191;49.548;8.658;2023-04-19T06:04:03;100957.44;;;10.24;100.00
29121;BME280;16191;49.548;8.658;2023-04-19T06:06:30;100959.09;;;10.27;100.00
29121;BME280;16191;49.548;8.658;2023-04-19T06:08:56;100953.47;;;10.41;100.00
29121;BME280;16191;49.548;8.658;2023-04-19T06:11:23;100950.00;;;10.40;100.00
29121;BME280;16191;49.548;8.658;2023-04-19T06:14:04;100959.94;;;10.58;100.00
29121;BME280;16191;49.548;8.658;2023-04-19T06:16:31;100954.44;;;10.68;100.00
29121;BME280;16191;49.548;8.658;2023-04-19T06:18:58;100963.56;;;10.82;100.00
29121;BME280;16191;49.548;8.658;2023-04-19T06:21:24;100957.09;;;10.94;100.00
29121;BME280;16191;49.548;8.658;2023-04-19T06:23:51;100956.97;;;10.98;100.00
29121;BME280;16191;49.548;8.658;2023-04-19T06:26:17;100955.00;;;11.05;100.00
29121;BME280;16191;49.548;8.658;2023-04-19T06:28:44;100948.19;;;11.01;100.00
29121;BME280;16191;49.548;8.658;2023-04-19T06:31:10;100947.97;;;11.07;100.00
29121;BME280;16191;49.548;8.658;2023-04-19T06:33:37;100937.47;;;11.09;100.00
29121;BME280;16191;49.548;8.658;2023-04-19T06:36:04;100937.66;;;11.04;100.00
29121;BME280;16191;49.548;8.658;2023-04-19T06:38:31;100940.34;;;11.01;100.00
29121;BME280;16191;49.548;8.658;2023-04-19T06:40:57;100939.91;;;11.15;100.00
29121;BME280;16191;49.548;8.658;2023-04-19T06:43:24;100940.41;;;11.26;100.00
29121;BME280;16191;49.548;8.658;2023-04-19T06:45:57;100946.16;;;11.37;100.00
29121;BME280;16191;49.548;8.658;2023-04-19T06:48:24;100940.25;;;11.30;100.00
29121;BME280;16191;49.548;8.658;2023-04-19T06:50:51;100946.47;;;11.26;100.00
29121;BME280;16191;49.548;8.658;2023-04-19T06:53:18;100957.00;;;11.25;100.00
29121;BME280;16191;49.548;8.658;2023-04-19T06:55:45;100955.34;;;11.22;100.00
29121;BME280;16191;49.548;8.658;2023-04-19T06:58:11;100960.91;;;11.38;100.00
29121;BME280;16191;49.548;8.658;2023-04-19T07:00:38;100948.56;;;11.43;100.00
29121;BME280;16191;49.548;8.658;2023-04-19T07:03:04;100955.69;;;11.38;100.00
29121;BME280;16191;49.548;8.658;2023-04-19T07:05:31;100951.28;;;11.40;100.00
29121;BME280;16191;49.548;8.658;2023-04-19T07:07:58;100950.03;;;11.25;100.00
29121;BME280;16191;49.548;8.658;2023-04-19T07:10:24;100948.91;;;11.32;100.00
29121;BME280;16191;49.548;8.658;2023-04-19T07:12:51;100952.28;;;11.36;100.00
29121;BME280;16191;49.548;8.658;2023-04-19T07:15:17;100947.66;;;11.44;100.00
29121;BME280;16191;49.548;8.658;2023-04-19T07:17:44;100937.28;;;11.67;100.00
29121;BME280;16191;49.548;8.658;2023-04-19T07:20:11;100944.94;;;11.72;100.00
29121;BME280;16191;49.548;8.658;2023-04-19T07:22:37;100933.88;;;11.65;100.00
29121;BME280;16191;49.548;8.658;2023-04-19T07:25:04;100944.72;;;11.80;100.00
29121;BME280;16191;49.548;8.658;2023-04-19T07:27:30;100945.78;;;11.99;100.00
29121;BME280;16191;49.548;8.658;2023-04-19T07:29:57;100944.31;;;12.15;100.00
29121;BME280;16191;49.548;8.658;2023-04-19T07:32:23;100940.00;;;12.14;100.00
29121;BME280;16191;49.548;8.658;2023-04-19T07:34:50;100937.56;;;12.10;100.00
29121;BME280;16191;49.548;8.658;2023-04-19T07:37:17;100935.06;;;12.30;100.00
29121;BME280;16191;49.548;8.658;2023-04-19T07:39:43;100931.59;;;12.29;100.00
29121;BME280;16191;49.548;8.658;2023-04-19T07:42:10;100931.50;;;12.32;100.00
29121;BME280;16191;49.548;8.658;2023-04-19T07:44:36;100926.31;;;12.31;100.00
29121;BME280;16191;49.548;8.658;2023-04-19T07:47:03;100929.91;;;12.28;100.00
29121;BME280;16191;49.548;8.658;2023-04-19T07:49:31;100931.13;;;12.42;100.00
29121;BME280;16191;49.548;8.658;2023-04-19T07:52:00;100937.44;;;12.59;100.00
29121;BME280;16191;49.548;8.658;2023-04-19T07:54:29;100932.72;;;12.46;100.00
29121;BME280;16191;49.548;8.658;2023-04-19T07:56:57;100934.28;;;12.51;100.00
29121;BME280;16191;49.548;8.658;2023-04-19T07:59:24;100920.22;;;12.30;100.00
29121;BME280;16191;49.548;8.658;2023-04-19T08:01:51;100932.09;;;12.39;100.00
29121;BME280;16191;49.548;8.658;2023-04-19T08:04:17;100930.50;;;12.58;100.00
29121;BME280;16191;49.548;8.658;2023-04-19T08:06:46;100928.34;;;12.46;100.00
29121;BME280;16191;49.548;8.658;2023-04-19T08:09:13;100927.81;;;12.60;100.00
29121;BME280;16191;49.548;8.658;2023-04-19T08:11:39;100916.75;;;12.53;100.00
29121;BME280;16191;49.548;8.658;2023-04-19T08:14:07;100913.53;;;12.68;100.00
29121;BME280;16191;49.548;8.658;2023-04-19T08:16:54;100912.63;;;12.91;100.00
29121;BME280;16191;49.548;8.658;2023-04-19T08:19:40;100915.59;;;12.60;100.00
29121;BME280;16191;49.548;8.658;2023-04-19T08:22:07;100917.38;;;12.82;100.00
29121;BME280;16191;49.548;8.658;2023-04-19T08:24:33;100903.75;;;12.95;100.00
29121;BME280;16191;49.548;8.658;2023-04-19T08:27:00;100902.25;;;13.10;100.00
29121;BME280;16191;49.548;8.658;2023-04-19T08:29:27;100911.22;;;13.26;100.00
29121;BME280;16191;49.548;8.658;2023-04-19T08:31:53;100906.25;;;13.20;100.00
29121;BME280;16191;49.548;8.658;2023-04-19T08:34:20;100915.25;;;12.91;100.00
29121;BME280;16191;49.548;8.658;2023-04-19T08:36:46;100904.66;;;12.94;100.00
29121;BME280;16191;49.548;8.658;2023-04-19T08:39:30;100910.53;;;13.21;100.00
29121;BME280;16191;49.548;8.658;2023-04-19T08:42:03;100906.31;;;13.19;100.00
29121;BME280;16191;49.548;8.658;2023-04-19T08:44:44;100902.09;;;12.93;100.00
29121;BME280;16191;49.548;8.658;2023-04-19T08:47:32;100887.91;;;13.20;100.00
29121;BME280;16191;49.548;8.658;2023-04-19T08:50:00;100898.91;;;13.07;100.00
29121;BME280;16191;49.548;8.658;2023-04-19T08:52:34;100893.84;;;13.24;100.00
29121;BME280;16191;49.548;8.658;2023-04-19T08:55:20;100895.06;;;13.37;100.00
29121;BME280;16191;49.548;8.658;2023-04-19T08:57:46;100896.03;;;13.13;100.00
29121;BME280;16191;49.548;8.658;2023-04-19T09:00:14;100885.03;;;13.47;100.00
29121;BME280;16191;49.548;8.658;2023-04-19T09:02:49;100884.94;;;13.68;100.00
29121;BME280;16191;49.548;8.658;2023-04-19T09:05:18;100883.25;;;13.47;100.00
29121;BME280;16191;49.548;8.658;2023-04-19T09:07:45;100887.72;;;13.45;100.00
29121;BME280;16191;49.548;8.658;2023-04-19T09:10:14;100881.47;;;13.48;100.00
29121;BME280;16191;49.548;8.658;2023-04-19T09:12:41;100881.69;;;13.63;100.00
29121;BME280;16191;49.548;8.658;2023-04-19T09:15:09;100878.06;;;13.46;100.00
29121;BME280;16191;49.548;8.658;2023-04-19T09:17:37;100871.91;;;13.67;100.00
29121;BME280;16191;49.548;8.658;2023-04-19T09:20:05;100868.69;;;13.81;100.00
29121;BME280;16191;49.548;8.658;2023-04-19T09:22:32;100866.34;;;13.75;100.00
29121;BME280;16191;49.548;8.658;2023-04-19T09:24:59;100864.53;;;13.95;100.00
29121;BME280;16191;49.548;8.658;2023-04-19T09:27:31;100869.19;;;13.89;100.00
29121;BME280;16191;49.548;8.658;2023-04-19T09:29:59;100870.47;;;13.60;100.00
29121;BME280;16191;49.548;8.658;2023-04-19T09:32:27;100864.53;;;13.56;100.00
29121;BME280;16191;49.548;8.658;2023-04-19T09:34:56;100863.06;;;13.49;100.00
29121;BME280;16191;49.548;8.658;2023-04-19T09:37:25;100868.44;;;13.46;100.00
29121;BME280;16191;49.548;8.658;2023-04-19T09:39:54;100861.66;;;13.42;100.00
29121;BME280;16191;49.548;8.658;2023-04-19T09:42:21;100856.84;;;13.31;100.00
29121;BME280;16191;49.548;8.658;2023-04-19T09:45:08;100854.25;;;13.10;100.00
29121;BME280;16191;49.548;8.658;2023-04-19T09:47:38;100856.13;;;13.28;100.00
29121;BME280;16191;49.548;8.658;2023-04-19T09:52:48;100848.78;;;13.16;100.00
29121;BME280;16191;49.548;8.658;2023-04-19T09:55:16;100847.75;;;12.98;100.00
29121;BME280;16191;49.548;8.658;2023-04-19T09:57:53;100846.00;;;12.98;100.00
29121;BME280;16191;49.548;8.658;2023-04-19T10:00:21;100843.59;;;12.92;100.00
29121;BME280;16191;49.548;8.658;2023-04-19T10:02:51;100839.22;;;12.93;100.00
29121;BME280;16191;49.548;8.658;2023-04-19T10:05:24;100843.06;;;12.84;100.00
29121;BME280;16191;49.548;8.658;2023-04-19T10:07:52;100839.22;;;12.93;100.00
29121;BME280;16191;49.548;8.658;2023-04-19T10:10:25;100838.66;;;12.85;100.00
29121;BME280;16191;49.548;8.658;2023-04-19T10:13:10;100848.97;;;12.67;100.00
29121;BME280;16191;49.548;8.658;2023-04-19T10:15:46;100846.16;;;12.94;100.00
29121;BME280;16191;49.548;8.658;2023-04-19T10:18:21;100840.03;;;12.95;100.00
29121;BME280;16191;49.548;8.658;2023-04-19T10:20:56;100842.25;;;12.82;100.00
29121;BME280;16191;49.548;8.658;2023-04-19T10:23:25;100849.28;;;12.82;100.00
29121;BME280;16191;49.548;8.658;2023-04-19T10:25:56;100837.16;;;12.79;100.00
29121;BME280;16191;49.548;8.658;2023-04-19T10:28:23;100837.88;;;12.83;100.00
29121;BME280;16191;49.548;8.658;2023-04-19T10:30:53;100837.16;;;12.79;98.24
29121;BME280;16191;49.548;8.658;2023-04-19T10:33:25;100840.38;;;12.86;96.58
29121;BME280;16191;49.548;8.658;2023-04-19T10:35:57;100831.31;;;12.94;95.80
29121;BME280;16191;49.548;8.658;2023-04-19T10:38:38;100828.56;;;12.97;97.97
29121;BME280;16191;49.548;8.658;2023-04-19T10:41:06;100828.94;;;13.09;94.92
29121;BME280;16191;49.548;8.658;2023-04-19T10:48:58;100818.13;;;13.77;86.30
29121;BME280;16191;49.548;8.658;2023-04-19T10:51:27;100812.56;;;13.85;85.28
29121;BME280;16191;49.548;8.658;2023-04-19T10:53:58;100799.69;;;14.35;79.73
29121;BME280;16191;49.548;8.658;2023-04-19T11:01:35;100779.84;;;14.48;73.15
29121;BME280;16191;49.548;8.658;2023-04-19T11:04:15;100774.91;;;14.59;73.09
29121;BME280;16191;49.548;8.658;2023-04-19T11:09:23;100772.69;;;14.69;68.75
29121;BME280;16191;49.548;8.658;2023-04-19T11:11:57;100767.03;;;14.59;70.17
29121;BME280;16191;49.548;8.658;2023-04-19T11:14:25;100768.72;;;14.43;69.59
29121;BME280;16191;49.548;8.658;2023-04-19T11:16:52;100767.09;;;14.58;70.28
29121;BME280;16191;49.548;8.658;2023-04-19T11:19:19;100763.06;;;14.32;71.50
29121;BME280;16191;49.548;8.658;2023-04-19T11:21:46;100766.16;;;14.42;70.13
29121;BME280;16191;49.548;8.658;2023-04-19T11:24:14;100747.78;;;14.59;69.19
29121;BME280;16191;49.548;8.658;2023-04-19T11:26:44;100740.81;;;15.27;66.24
29121;BME280;16191;49.548;8.658;2023-04-19T11:29:11;100739.53;;;15.51;63.53
29121;BME280;16191;49.548;8.658;2023-04-19T11:31:38;100734.19;;;15.53;62.23
29121;BME280;16191;49.548;8.658;2023-04-19T11:34:05;100728.16;;;15.51;61.37
29121;BME280;16191;49.548;8.658;2023-04-19T11:36:32;100721.03;;;15.53;60.61
29121;BME280;16191;49.548;8.658;2023-04-19T11:39:03;100719.06;;;15.73;59.48
29121;BME280;16191;49.548;8.658;2023-04-19T11:41:37;100713.47;;;15.95;60.52
29121;BME280;16191;49.548;8.658;2023-04-19T11:44:12;100707.31;;;15.63;60.07
29121;BME280;16191;49.548;8.658;2023-04-19T11:46:39;100698.84;;;15.90;60.04
29121;BME280;16191;49.548;8.658;2023-04-19T11:49:06;100704.19;;;16.04;59.44
29121;BME280;16191;49.548;8.658;2023-04-19T11:51:32;100692.97;;;16.16;58.72
29121;BME280;16191;49.548;8.658;2023-04-19T11:53:59;100690.28;;;15.70;59.28
29121;BME280;16191;49.548;8.658;2023-04-19T11:56:25;100687.69;;;15.53;58.92
29121;BME280;16191;49.548;8.658;2023-04-19T11:58:56;100694.59;;;15.38;57.77
29121;BME280;16191;49.548;8.658;2023-04-19T12:01:23;100691.81;;;15.41;58.58
29121;BME280;16191;49.548;8.658;2023-04-19T12:03:52;100680.28;;;15.77;58.96
29121;BME280;16191;49.548;8.658;2023-04-19T12:06:27;100680.75;;;15.84;58.10
29121;BME280;16191;49.548;8.658;2023-04-19T12:08:56;100679.28;;;16.09;56.68
29121;BME280;16191;49.548;8.658;2023-04-19T12:11:25;100675.50;;;16.45;53.46
29121;BME280;16191;49.548;8.658;2023-04-19T12:14:11;100669.13;;;16.79;52.68
29121;BME280;16191;49.548;8.658;2023-04-19T12:16:39;100671.66;;;16.81;51.13
29121;BME280;16191;49.548;8.658;2023-04-19T12:19:13;100670.72;;;17.53;50.26
29121;BME280;16191;49.548;8.658;2023-04-19T12:21:41;100665.09;;;17.02;50.01
29121;BME280;16191;49.548;8.658;2023-04-19T12:24:08;100660.66;;;16.58;51.43
29121;BME280;16191;49.548;8.658;2023-04-19T12:26:34;100657.06;;;16.45;51.12
29121;BME280;16191;49.548;8.658;2023-04-19T12:29:02;100650.09;;;16.74;50.81
29121;BME280;16191;49.548;8.658;2023-04-19T12:31:29;100648.97;;;16.64;49.64
29121;BME280;16191;49.548;8.658;2023-04-19T12:33:57;100652.56;;;17.20;48.24
29121;BME280;16191;49.548;8.658;2023-04-19T12:36:24;100632.19;;;18.18;45.92
29121;BME280;16191;49.548;8.658;2023-04-19T12:38:50;100631.03;;;18.22;45.16
29121;BME280;16191;49.548;8.658;2023-04-19T12:41:17;100629.59;;;18.43;44.80
29121;BME280;16191;49.548;8.658;2023-04-19T12:43:44;100619.88;;;18.44;44.25
29121;BME280;16191;49.548;8.658;2023-04-19T12:46:10;100625.09;;;18.96;43.01
29121;BME280;16191;49.548;8.658;2023-04-19T12:48:37;100630.91;;;18.63;44.15
29121;BME280;16191;49.548;8.658;2023-04-19T12:51:04;100628.19;;;17.98;45.86
29121;BME280;16191;49.548;8.658;2023-04-19T12:53:30;100618.44;;;18.13;46.11
29121;BME280;16191;49.548;8.658;2023-04-19T12:55:57;100615.19;;;18.62;45.12
29121;BME280;16191;49.548;8.658;2023-04-19T12:58:24;100607.88;;;19.52;43.01
29121;BME280;16191;49.548;8.658;2023-04-19T13:00:51;100605.56;;;20.19;41.50
29121;BME280;16191;49.548;8.658;2023-04-19T13:03:18;100601.22;;;19.34;44.17
29121;BME280;16191;49.548;8.658;2023-04-19T13:05:45;100613.47;;;18.86;44.73
29121;BME280;16191;49.548;8.658;2023-04-19T13:08:11;100604.81;;;18.19;46.12